Site contains unofficial IBTrACS data. Visit the IBTrACS Website to access archived data.

1848 NOT_NAMED (1848011S09080)


IBTrACS version v04r00. Visit IBTrACS website for data access.
Please direct all questions to the IBTrACS Q and A forum

Storm track - Intensity - Wind Radii - Intensity Data - Source Data - All data

Summary Information

Storm ID 1848011S09080
Start Jan 11 06Z
End Jan 22 06Z
ATCF IDs
Track status Best track data.

Storm track plot

Map of storm track

Intensity plots

No Intensity information for this storm


Radial wind information

No radial wind information for this storm


Position and Intensity Table

BASIN ISO_TIME_________ NATURE LAT LON
degrees north degrees east
SI 1848-01-11 06:00:00 NR -8.60 79.80
SI 09:00:00 NR -8.62 79.86
SI 12:00:00 NR -8.65 79.91
SI 15:00:00 NR -8.68 79.92
SI 18:00:00 NR -8.72 79.89
SI 21:00:00 NR -8.77 79.78
SI 1848-01-12 00:00:00 NR -8.83 79.60
SI 03:00:00 NR -8.91 79.31
SI 06:00:00 NR -9.00 78.90
SI 09:00:00 NR -9.11 78.37
SI 12:00:00 NR -9.24 77.72
SI 15:00:00 NR -9.39 77.00
SI 18:00:00 NR -9.56 76.23
SI 21:00:00 NR -9.74 75.44
SI 1848-01-13 00:00:00 NR -9.94 74.65
SI 03:00:00 NR -10.16 73.89
SI 06:00:00 NR -10.40 73.20
SI 09:00:00 NR -10.68 72.63
SI 12:00:00 NR -10.98 72.11
SI 15:00:00 NR -11.30 71.63
SI 18:00:00 NR -11.62 71.20
SI 21:00:00 NR -11.94 70.81
SI 1848-01-14 00:00:00 NR -12.25 70.46
SI 03:00:00 NR -12.54 70.16
SI 06:00:00 NR -12.80 69.90
SI 09:00:00 NR -12.99 69.67
SI 12:00:00 NR -13.15 69.49
SI 15:00:00 NR -13.30 69.35
SI 18:00:00 NR -13.42 69.24
SI 21:00:00 NR -13.54 69.15
SI 1848-01-15 00:00:00 NR -13.65 69.07
SI 03:00:00 NR -13.77 68.99
SI 06:00:00 NR -13.90 68.90
SI 09:00:00 NR -14.06 68.75
SI 12:00:00 NR -14.24 68.59
SI 15:00:00 NR -14.41 68.44
SI 18:00:00 NR -14.59 68.28
SI 21:00:00 NR -14.77 68.12
SI 1848-01-16 00:00:00 NR -14.95 67.97
SI 03:00:00 NR -15.13 67.83
SI 06:00:00 NR -15.30 67.70
SI 09:00:00 NR -15.45 67.57
SI 12:00:00 NR -15.60 67.44
SI 15:00:00 NR -15.75 67.33
SI 18:00:00 NR -15.89 67.23
SI 21:00:00 NR -16.04 67.14
SI 1848-01-17 00:00:00 NR -16.19 67.08
SI 03:00:00 NR -16.34 67.03
SI 06:00:00 NR -16.50 67.00
SI 09:00:00 NR -16.65 66.96
SI 12:00:00 NR -16.81 66.94
SI 15:00:00 NR -16.97 66.94
SI 18:00:00 NR -17.14 66.97
SI 21:00:00 NR -17.33 67.03
SI 1848-01-18 00:00:00 NR -17.53 67.11
SI 03:00:00 NR -17.75 67.24
SI 06:00:00 NR -18.00 67.40
SI 09:00:00 NR -18.28 67.61
SI 12:00:00 NR -18.59 67.86
SI 15:00:00 NR -18.91 68.15
SI 18:00:00 NR -19.25 68.46
SI 21:00:00 NR -19.59 68.79
SI 1848-01-19 00:00:00 NR -19.94 69.13
SI 03:00:00 NR -20.27 69.47
SI 06:00:00 NR -20.60 69.80
SI 09:00:00 NR -20.85 70.06
SI 12:00:00 NR -21.09 70.31
SI 15:00:00 NR -21.32 70.56
SI 18:00:00 NR -21.56 70.81
SI 21:00:00 NR -21.82 71.07
SI 1848-01-20 00:00:00 NR -22.11 71.35
SI 03:00:00 NR -22.43 71.66
SI 06:00:00 NR -22.80 72.00
SI 09:00:00 NR -23.26 72.36
SI 12:00:00 NR -23.77 72.75
SI 15:00:00 NR -24.32 73.18
SI 18:00:00 NR -24.89 73.63
SI 21:00:00 NR -25.48 74.12
SI 1848-01-21 00:00:00 NR -26.06 74.64
SI 03:00:00 NR -26.64 75.20
SI 06:00:00 NR -27.20 75.80
SI 09:00:00 NR -27.73 76.43
SI 12:00:00 NR -28.23 77.10
SI 15:00:00 NR -28.70 77.80
SI 18:00:00 NR -29.15 78.52
SI 21:00:00 NR -29.58 79.27
SI 1848-01-22 00:00:00 NR -30.00 80.03
SI 03:00:00 NR -30.40 80.81
SI 06:00:00 NR -30.80 81.60

Source Information

Agency Information
USA
TOKYO
CMA
HKO
NEWDELHI
REUNION WMO-Best-Tracks.txt:Line=14:xxxx848003
BOM
NADI
WELLINGTON
DS824
TD9636
TD9635
NEUMANN
MLC

All available IBTrACS Data

SEASON BASIN SUBBASIN ISO_TIME_________ NATURE LAT LON WMO AGENCY DIST2LAND LANDFALL IFLAG USA SSHS REUNION LAT REUNION LON REUNION TYPE REUNION TNUM STORM SPEED STORM DIR
Year degrees north degrees east km km 1 degrees north degrees east 1 kts degrees
1848 SI MM 1848-01-11 06:00:00 NR -8.60 79.80 reunion 1627 1626 _____O________ -1 -8.60 79.80 99 9.90 1 110
1848 SI MM 09:00:00 NR -8.62 79.86 1626 1626 _____P________ -1 -8.62 79.86 99 1 114
1848 SI MM 12:00:00 NR -8.65 79.91 1637 1637 _____P________ -1 -8.65 79.91 99 1 137
1848 SI MM 15:00:00 NR -8.68 79.92 1637 1637 _____P________ -1 -8.68 79.92 99 1 0
1848 SI MM 18:00:00 NR -8.72 79.89 1637 1637 _____P________ -1 -8.72 79.89 99 2 237
1848 SI MM 21:00:00 NR -8.77 79.78 1649 1649 _____P________ -1 -8.77 79.78 99 3 249
1848 SI MM 1848-01-12 00:00:00 NR -8.83 79.60 1650 1650 _____P________ -1 -8.83 79.60 99 5 254
1848 SI MM 03:00:00 NR -8.91 79.31 1664 1664 _____P________ -1 -8.91 79.31 99 7 256
1848 SI MM 06:00:00 NR -9.00 78.90 reunion 1680 1680 _____O________ -1 -9.00 78.90 99 9.90 10 258
1848 SI MM 09:00:00 NR -9.11 78.37 1698 1698 _____P________ -1 -9.11 78.37 99 12 258
1848 SI MM 12:00:00 NR -9.24 77.72 1722 1722 _____P________ -1 -9.24 77.72 99 14 258
1848 SI MM 15:00:00 NR -9.39 77.00 1760 1760 _____P________ -1 -9.39 77.00 99 15 258
1848 SI MM 18:00:00 NR -9.56 76.23 1804 1804 _____P________ -1 -9.56 76.23 99 16 257
1848 SI MM 21:00:00 NR -9.74 75.44 1840 1840 _____P________ -1 -9.74 75.44 99 16 256
1848 SI MM 1848-01-13 00:00:00 NR -9.94 74.65 1890 1890 _____P________ -1 -9.94 74.65 99 16 255
1848 SI MM 03:00:00 NR -10.16 73.89 1948 1948 _____P________ -1 -10.16 73.89 99 15 252
1848 SI MM 06:00:00 NR -10.40 73.20 reunion 1984 1920 _____O________ -1 -10.40 73.20 99 9.90 13 247
1848 SI MM 09:00:00 NR -10.68 72.63 1911 1847 _____P________ -1 -10.68 72.63 99 12 242
1848 SI MM 12:00:00 NR -10.98 72.11 1847 1792 _____P________ -1 -10.98 72.11 99 12 238
1848 SI MM 15:00:00 NR -11.30 71.63 1783 1728 _____P________ -1 -11.30 71.63 99 11 234
1848 SI MM 18:00:00 NR -11.62 71.20 1728 1673 _____P________ -1 -11.62 71.20 99 10 231
1848 SI MM 21:00:00 NR -11.94 70.81 1673 1627 _____P________ -1 -11.94 70.81 99 10 229
1848 SI MM 1848-01-14 00:00:00 NR -12.25 70.46 1620 1581 _____P________ -1 -12.25 70.46 99 9 227
1848 SI MM 03:00:00 NR -12.54 70.16 1581 1535 _____P________ -1 -12.54 70.16 99 8 225
1848 SI MM 06:00:00 NR -12.80 69.90 reunion 1535 1505 _____O________ -1 -12.80 69.90 99 9.90 7 227
1848 SI MM 09:00:00 NR -12.99 69.67 1505 1480 _____P________ -1 -12.99 69.67 99 5 228
1848 SI MM 12:00:00 NR -13.15 69.49 1474 1459 _____P________ -1 -13.15 69.49 99 4 225
1848 SI MM 15:00:00 NR -13.30 69.35 1459 1435 _____P________ -1 -13.30 69.35 99 4 222
1848 SI MM 18:00:00 NR -13.42 69.24 1435 1429 _____P________ -1 -13.42 69.24 99 3 218
1848 SI MM 21:00:00 NR -13.54 69.15 1420 1413 _____P________ -1 -13.54 69.15 99 3 216
1848 SI MM 1848-01-15 00:00:00 NR -13.65 69.07 1407 1392 _____P________ -1 -13.65 69.07 99 3 214
1848 SI MM 03:00:00 NR -13.77 68.99 1392 1377 _____P________ -1 -13.77 68.99 99 3 213
1848 SI MM 06:00:00 NR -13.90 68.90 reunion 1377 1356 _____O________ -1 -13.90 68.90 99 9.90 4 219
1848 SI MM 09:00:00 NR -14.06 68.75 1347 1332 _____P________ -1 -14.06 68.75 99 5 221
1848 SI MM 12:00:00 NR -14.24 68.59 1332 1302 _____P________ -1 -14.24 68.59 99 5 221
1848 SI MM 15:00:00 NR -14.41 68.44 1302 1281 _____P________ -1 -14.41 68.44 99 5 221
1848 SI MM 18:00:00 NR -14.59 68.28 1281 1252 _____P________ -1 -14.59 68.28 99 5 220
1848 SI MM 21:00:00 NR -14.77 68.12 1252 1237 _____P________ -1 -14.77 68.12 99 5 220
1848 SI MM 1848-01-16 00:00:00 NR -14.95 67.97 1231 1207 _____P________ -1 -14.95 67.97 99 5 219
1848 SI MM 03:00:00 NR -15.13 67.83 1207 1187 _____P________ -1 -15.13 67.83 99 4 217
1848 SI MM 06:00:00 NR -15.30 67.70 reunion 1187 1172 _____O________ -1 -15.30 67.70 99 9.90 4 218
1848 SI MM 09:00:00 NR -15.45 67.57 1167 1152 _____P________ -1 -15.45 67.57 99 4 219
1848 SI MM 12:00:00 NR -15.60 67.44 1143 1128 _____P________ -1 -15.60 67.44 99 4 218
1848 SI MM 15:00:00 NR -15.75 67.33 1128 1108 _____P________ -1 -15.75 67.33 99 4 215
1848 SI MM 18:00:00 NR -15.89 67.23 1108 1093 _____P________ -1 -15.89 67.23 99 3 212
1848 SI MM 21:00:00 NR -16.04 67.14 1093 1083 _____P________ -1 -16.04 67.14 99 3 207
1848 SI MM 1848-01-17 00:00:00 NR -16.19 67.08 1083 1069 _____P________ -1 -16.19 67.08 99 3 200
1848 SI MM 03:00:00 NR -16.34 67.03 1069 1059 _____P________ -1 -16.34 67.03 99 3 193
1848 SI MM 06:00:00 NR -16.50 67.00 reunion 1059 1054 _____O________ -1 -16.50 67.00 99 9.90 3 192
1848 SI MM 09:00:00 NR -16.65 66.96 1050 1035 _____P________ -1 -16.65 66.96 99 3 191
1848 SI MM 12:00:00 NR -16.81 66.94 1035 1027 _____P________ -1 -16.81 66.94 99 3 182
1848 SI MM 15:00:00 NR -16.97 66.94 1027 1027 _____P________ -1 -16.97 66.94 99 3 0
1848 SI MM 18:00:00 NR -17.14 66.97 1032 1024 _____P________ -1 -17.14 66.97 99 4 168
1848 SI MM 21:00:00 NR -17.33 67.03 1024 1020 _____P________ -1 -17.33 67.03 99 4 160
1848 SI MM 1848-01-18 00:00:00 NR -17.53 67.11 1027 1023 _____P________ -1 -17.53 67.11 99 5 155
1848 SI MM 03:00:00 NR -17.75 67.24 1026 1026 _____P________ -1 -17.75 67.24 99 5 150
1848 SI MM 06:00:00 NR -18.00 67.40 reunion 1040 1037 _____O________ -1 -18.00 67.40 99 9.90 6 146
1848 SI MM 09:00:00 NR -18.28 67.61 1052 1052 _____P________ -1 -18.28 67.61 99 7 143
1848 SI MM 12:00:00 NR -18.59 67.86 1075 1073 _____P________ -1 -18.59 67.86 99 8 141
1848 SI MM 15:00:00 NR -18.91 68.15 1090 1090 _____P________ -1 -18.91 68.15 99 9 139
1848 SI MM 18:00:00 NR -19.25 68.46 1126 1124 _____P________ -1 -19.25 68.46 99 9 138
1848 SI MM 21:00:00 NR -19.59 68.79 1152 1152 _____P________ -1 -19.59 68.79 99 9 137
1848 SI MM 1848-01-19 00:00:00 NR -19.94 69.13 1180 1180 _____P________ -1 -19.94 69.13 99 9 137
1848 SI MM 03:00:00 NR -20.27 69.47 1219 1219 _____P________ -1 -20.27 69.47 99 9 137
1848 SI MM 06:00:00 NR -20.60 69.80 reunion 1250 1250 _____O________ -1 -20.60 69.80 99 9.90 8 136
1848 SI MM 09:00:00 NR -20.85 70.06 1281 1281 _____P________ -1 -20.85 70.06 99 7 136
1848 SI MM 12:00:00 NR -21.09 70.31 1302 1302 _____P________ -1 -21.09 70.31 99 7 135
1848 SI MM 15:00:00 NR -21.32 70.56 1334 1334 _____P________ -1 -21.32 70.56 99 7 135
1848 SI MM 18:00:00 NR -21.56 70.81 1357 1357 _____P________ -1 -21.56 70.81 99 7 136
1848 SI MM 21:00:00 NR -21.82 71.07 1389 1389 _____P________ -1 -21.82 71.07 99 7 137
1848 SI MM 1848-01-20 00:00:00 NR -22.11 71.35 1423 1423 _____P________ -1 -22.11 71.35 99 8 138
1848 SI MM 03:00:00 NR -22.43 71.66 1457 1457 _____P________ -1 -22.43 71.66 99 9 139
1848 SI MM 06:00:00 NR -22.80 72.00 reunion 1493 1493 _____O________ -1 -22.80 72.00 99 9.90 11 142
1848 SI MM 09:00:00 NR -23.26 72.36 1542 1542 _____P________ -1 -23.26 72.36 99 12 144
1848 SI MM 12:00:00 NR -23.77 72.75 1593 1593 _____P________ -1 -23.77 72.75 99 13 145
1848 SI MM 15:00:00 NR -24.32 73.18 1644 1644 _____P________ -1 -24.32 73.18 99 14 144
1848 SI MM 18:00:00 NR -24.89 73.63 1699 1699 _____P________ -1 -24.89 73.63 99 14 144
1848 SI MM 21:00:00 NR -25.48 74.12 1765 1765 _____P________ -1 -25.48 74.12 99 15 142
1848 SI MM 1848-01-21 00:00:00 NR -26.06 74.64 1832 1832 _____P________ -1 -26.06 74.64 99 15 140
1848 SI MM 03:00:00 NR -26.64 75.20 1906 1906 _____P________ -1 -26.64 75.20 99 15 138
1848 SI MM 06:00:00 NR -27.20 75.80 reunion 1983 1983 _____O________ -1 -27.20 75.80 99 9.90 15 135
1848 SI MM 09:00:00 NR -27.73 76.43 2057 2057 _____P________ -1 -27.73 76.43 99 15 132
1848 SI MM 12:00:00 NR -28.23 77.10 2140 2140 _____P________ -1 -28.23 77.10 99 15 129
1848 SI MM 15:00:00 NR -28.70 77.80 2223 2223 _____P________ -1 -28.70 77.80 99 16 127
1848 SI MM 18:00:00 NR -29.15 78.52 2306 2291 _____P________ -1 -29.15 78.52 99 16 125
1848 SI MM 21:00:00 NR -29.58 79.27 2294 2268 _____P________ -1 -29.58 79.27 99 16 123
1848 SI MM 1848-01-22 00:00:00 NR -30.00 80.03 2271 2250 _____P________ -1 -30.00 80.03 99 16 122
1848 SI MM 03:00:00 NR -30.40 80.81 2253 2235 _____P________ -1 -30.40 80.81 99 16 121
1848 SI MM 06:00:00 NR -30.80 81.60 2238 _____O________ -1 -30.80 81.60 99 9.90 16 120